Airports Norway Sandnessj√łen Airport (Stokka)

Sandnessj√łen Airport (Stokka) (ENST / SSJ)

Facts about Sandnessjøen Airport (Stokka)

Name Sandnessjøen Airport (Stokka)
City Sandnessjoen
Country Norway
ICAO code ENST
IATA code SSJ
Elevation 17.0688 meters (56 feet)

Weather

METAR

Metar data retrieved Saturday, 20 July 2024 at 00:55 UTC (22 minutes ago)

ENST 192050Z 07003KT 9999 VCSH FEW005 SCT008 BKN018 13/13 Q1019 RMK WIND 300FT 07005KT

Live traffic

Navigraph Charts (account required)